sensor_id;sensor_type;location;lat;lon;timestamp;temperature;humidity
83405;SHT30;73331;48.168;20.776;2024-01-30T00:00:50;-3.11;88.27
83405;SHT30;73331;48.168;20.776;2024-01-30T00:02:21;-3.18;88.34
83405;SHT30;73331;48.168;20.776;2024-01-30T00:03:51;-3.22;88.36
83405;SHT30;73331;48.168;20.776;2024-01-30T00:05:22;-3.32;88.31
83405;SHT30;73331;48.168;20.776;2024-01-30T00:06:53;-3.32;88.49
83405;SHT30;73331;48.168;20.776;2024-01-30T00:08:23;-3.39;88.56
83405;SHT30;73331;48.168;20.776;2024-01-30T00:09:53;-3.41;88.83
83405;SHT30;73331;48.168;20.776;2024-01-30T00:11:25;-3.38;89.08
83405;SHT30;73331;48.168;20.776;2024-01-30T00:12:59;-3.32;89.36
83405;SHT30;73331;48.168;20.776;2024-01-30T00:14:29;-3.34;89.50
83405;SHT30;73331;48.168;20.776;2024-01-30T00:16:00;-3.32;89.57
83405;SHT30;73331;48.168;20.776;2024-01-30T00:17:30;-3.36;89.56
83405;SHT30;73331;48.168;20.776;2024-01-30T00:19:01;-3.38;89.47
83405;SHT30;73331;48.168;20.776;2024-01-30T00:20:32;-3.36;89.43
83405;SHT30;73331;48.168;20.776;2024-01-30T00:22:03;-3.39;89.50
83405;SHT30;73331;48.168;20.776;2024-01-30T00:23:34;-3.39;89.84
83405;SHT30;73331;48.168;20.776;2024-01-30T00:25:04;-3.35;90.05
83405;SHT30;73331;48.168;20.776;2024-01-30T00:26:35;-3.35;90.00
83405;SHT30;73331;48.168;20.776;2024-01-30T00:28:05;-3.30;90.04
83405;SHT30;73331;48.168;20.776;2024-01-30T00:29:36;-3.25;90.19
83405;SHT30;73331;48.168;20.776;2024-01-30T00:31:07;-3.21;90.12
83405;SHT30;73331;48.168;20.776;2024-01-30T00:32:37;-3.18;90.05
83405;SHT30;73331;48.168;20.776;2024-01-30T00:34:08;-3.12;89.93
83405;SHT30;73331;48.168;20.776;2024-01-30T00:35:38;-3.07;89.66
83405;SHT30;73331;48.168;20.776;2024-01-30T00:37:08;-3.07;89.66
83405;SHT30;73331;48.168;20.776;2024-01-30T00:38:39;-3.04;89.72
83405;SHT30;73331;48.168;20.776;2024-01-30T00:40:11;-2.80;89.53
83405;SHT30;73331;48.168;20.776;2024-01-30T00:41:45;-2.98;89.54
83405;SHT30;73331;48.168;20.776;2024-01-30T00:43:16;-2.74;89.49
83405;SHT30;73331;48.168;20.776;2024-01-30T00:44:46;-2.74;88.50
83405;SHT30;73331;48.168;20.776;2024-01-30T00:46:17;-2.59;88.24
83405;SHT30;73331;48.168;20.776;2024-01-30T00:47:47;-2.54;87.28
83405;SHT30;73331;48.168;20.776;2024-01-30T00:49:18;-2.83;88.15
83405;SHT30;73331;48.168;20.776;2024-01-30T00:50:48;-2.52;88.16
83405;SHT30;73331;48.168;20.776;2024-01-30T00:52:19;-2.23;86.01
83405;SHT30;73331;48.168;20.776;2024-01-30T00:53:49;-2.05;85.38
83405;SHT30;73331;48.168;20.776;2024-01-30T00:55:20;-2.48;85.88
83405;SHT30;73331;48.168;20.776;2024-01-30T00:56:50;-2.79;87.34
83405;SHT30;73331;48.168;20.776;2024-01-30T00:58:21;-2.88;87.93
83405;SHT30;73331;48.168;20.776;2024-01-30T00:59:51;-2.87;87.72
83405;SHT30;73331;48.168;20.776;2024-01-30T01:01:22;-3.00;88.24
83405;SHT30;73331;48.168;20.776;2024-01-30T01:02:53;-3.11;88.52
83405;SHT30;73331;48.168;20.776;2024-01-30T01:04:23;-3.15;88.69
83405;SHT30;73331;48.168;20.776;2024-01-30T01:05:54;-3.15;88.77
83405;SHT30;73331;48.168;20.776;2024-01-30T01:07:24;-3.15;88.66
83405;SHT30;73331;48.168;20.776;2024-01-30T01:08:55;-3.18;88.62
83405;SHT30;73331;48.168;20.776;2024-01-30T01:10:25;-3.28;88.68
83405;SHT30;73331;48.168;20.776;2024-01-30T01:11:55;-3.30;89.06
83405;SHT30;73331;48.168;20.776;2024-01-30T01:13:26;-3.28;89.17
83405;SHT30;73331;48.168;20.776;2024-01-30T01:14:56;-3.30;89.19
83405;SHT30;73331;48.168;20.776;2024-01-30T01:16:27;-3.31;89.19
83405;SHT30;73331;48.168;20.776;2024-01-30T01:17:57;-3.24;89.20
83405;SHT30;73331;48.168;20.776;2024-01-30T01:19:28;-3.30;88.97
83405;SHT30;73331;48.168;20.776;2024-01-30T01:20:59;-3.32;89.02
83405;SHT30;73331;48.168;20.776;2024-01-30T01:22:30;-3.35;89.15
83405;SHT30;73331;48.168;20.776;2024-01-30T01:24:01;-3.36;89.30
83405;SHT30;73331;48.168;20.776;2024-01-30T01:25:31;-3.36;89.34
83405;SHT30;73331;48.168;20.776;2024-01-30T01:27:02;-3.34;89.22
83405;SHT30;73331;48.168;20.776;2024-01-30T01:28:33;-3.32;89.19
83405;SHT30;73331;48.168;20.776;2024-01-30T01:30:04;-3.35;88.93
83405;SHT30;73331;48.168;20.776;2024-01-30T01:31:36;-3.39;88.82
83405;SHT30;73331;48.168;20.776;2024-01-30T01:33:10;-3.41;88.81
83405;SHT30;73331;48.168;20.776;2024-01-30T01:34:40;-3.41;88.56
83405;SHT30;73331;48.168;20.776;2024-01-30T01:36:11;-3.46;88.30
83405;SHT30;73331;48.168;20.776;2024-01-30T01:37:42;-3.49;88.35
83405;SHT30;73331;48.168;20.776;2024-01-30T01:39:12;-3.54;88.20
83405;SHT30;73331;48.168;20.776;2024-01-30T01:40:43;-3.55;88.24
83405;SHT30;73331;48.168;20.776;2024-01-30T01:42:14;-3.54;88.22
83405;SHT30;73331;48.168;20.776;2024-01-30T01:43:44;-3.52;88.33
83405;SHT30;73331;48.168;20.776;2024-01-30T01:45:15;-3.54;88.66
83405;SHT30;73331;48.168;20.776;2024-01-30T01:46:47;-3.52;88.78
83405;SHT30;73331;48.168;20.776;2024-01-30T01:48:18;-3.51;88.93
83405;SHT30;73331;48.168;20.776;2024-01-30T01:49:48;-3.46;88.67
83405;SHT30;73331;48.168;20.776;2024-01-30T01:51:19;-3.48;88.49
83405;SHT30;73331;48.168;20.776;2024-01-30T01:52:50;-3.44;87.90
83405;SHT30;73331;48.168;20.776;2024-01-30T01:54:21;-3.42;87.72
83405;SHT30;73331;48.168;20.776;2024-01-30T01:55:51;-3.59;87.82
83405;SHT30;73331;48.168;20.776;2024-01-30T01:57:23;-3.65;88.17
83405;SHT30;73331;48.168;20.776;2024-01-30T01:58:55;-3.69;88.44
83405;SHT30;73331;48.168;20.776;2024-01-30T02:00:25;-3.75;88.54
83405;SHT30;73331;48.168;20.776;2024-01-30T02:01:56;-3.83;88.68
83405;SHT30;73331;48.168;20.776;2024-01-30T02:03:27;-3.83;88.81
83405;SHT30;73331;48.168;20.776;2024-01-30T02:04:58;-3.87;88.71
83405;SHT30;73331;48.168;20.776;2024-01-30T02:06:29;-3.90;88.96
83405;SHT30;73331;48.168;20.776;2024-01-30T02:07:59;-3.82;89.03
83405;SHT30;73331;48.168;20.776;2024-01-30T02:09:30;-3.78;88.96
83405;SHT30;73331;48.168;20.776;2024-01-30T02:11:00;-3.76;88.90
83405;SHT30;73331;48.168;20.776;2024-01-30T02:12:31;-3.72;89.00
83405;SHT30;73331;48.168;20.776;2024-01-30T02:14:04;-3.78;89.05
83405;SHT30;73331;48.168;20.776;2024-01-30T02:15:35;-3.76;89.13
83405;SHT30;73331;48.168;20.776;2024-01-30T02:17:05;-3.72;89.32
83405;SHT30;73331;48.168;20.776;2024-01-30T02:18:36;-3.69;89.11
83405;SHT30;73331;48.168;20.776;2024-01-30T02:20:12;-3.73;88.77
83405;SHT30;73331;48.168;20.776;2024-01-30T02:21:43;-3.80;88.24
83405;SHT30;73331;48.168;20.776;2024-01-30T02:23:15;-3.89;88.31
83405;SHT30;73331;48.168;20.776;2024-01-30T02:24:46;-3.86;88.77
83405;SHT30;73331;48.168;20.776;2024-01-30T02:26:16;-3.87;88.88
83405;SHT30;73331;48.168;20.776;2024-01-30T02:27:47;-3.90;88.91
83405;SHT30;73331;48.168;20.776;2024-01-30T02:29:17;-3.94;88.80
83405;SHT30;73331;48.168;20.776;2024-01-30T02:30:48;-3.90;88.96
83405;SHT30;73331;48.168;20.776;2024-01-30T02:32:18;-3.94;88.99
83405;SHT30;73331;48.168;20.776;2024-01-30T02:33:49;-3.97;89.15
83405;SHT30;73331;48.168;20.776;2024-01-30T02:35:19;-3.97;89.16
83405;SHT30;73331;48.168;20.776;2024-01-30T02:36:50;-3.99;89.63
83405;SHT30;73331;48.168;20.776;2024-01-30T02:38:20;-3.97;89.59
83405;SHT30;73331;48.168;20.776;2024-01-30T02:39:51;-3.97;89.35
83405;SHT30;73331;48.168;20.776;2024-01-30T02:41:21;-3.97;89.49
83405;SHT30;73331;48.168;20.776;2024-01-30T02:42:52;-4.01;89.42
83405;SHT30;73331;48.168;20.776;2024-01-30T02:44:22;-3.97;89.31
83405;SHT30;73331;48.168;20.776;2024-01-30T02:45:53;-4.01;89.06
83405;SHT30;73331;48.168;20.776;2024-01-30T02:47:23;-4.00;89.07
83405;SHT30;73331;48.168;20.776;2024-01-30T02:48:54;-4.00;89.09
83405;SHT30;73331;48.168;20.776;2024-01-30T02:50:24;-4.03;89.27
83405;SHT30;73331;48.168;20.776;2024-01-30T02:51:55;-4.03;89.34
83405;SHT30;73331;48.168;20.776;2024-01-30T02:53:27;-4.09;89.43
83405;SHT30;73331;48.168;20.776;2024-01-30T02:54:57;-4.07;89.54
83405;SHT30;73331;48.168;20.776;2024-01-30T02:56:28;-4.07;89.71
83405;SHT30;73331;48.168;20.776;2024-01-30T02:57:58;-3.99;89.64
83405;SHT30;73331;48.168;20.776;2024-01-30T02:59:29;-4.06;89.70
83405;SHT30;73331;48.168;20.776;2024-01-30T03:00:59;-4.01;89.89
83405;SHT30;73331;48.168;20.776;2024-01-30T03:02:30;-4.03;89.81
83405;SHT30;73331;48.168;20.776;2024-01-30T03:04:00;-4.04;89.90
83405;SHT30;73331;48.168;20.776;2024-01-30T03:05:31;-4.03;89.84
83405;SHT30;73331;48.168;20.776;2024-01-30T03:07:01;-4.06;89.89
83405;SHT30;73331;48.168;20.776;2024-01-30T03:08:32;-4.06;90.02
83405;SHT30;73331;48.168;20.776;2024-01-30T03:10:04;-4.03;89.85
83405;SHT30;73331;48.168;20.776;2024-01-30T03:11:35;-4.04;90.17
83405;SHT30;73331;48.168;20.776;2024-01-30T03:13:05;-4.00;90.29
83405;SHT30;73331;48.168;20.776;2024-01-30T03:14:36;-4.03;90.16
83405;SHT30;73331;48.168;20.776;2024-01-30T03:16:08;-4.01;90.24
83405;SHT30;73331;48.168;20.776;2024-01-30T03:17:38;-4.04;90.32
83405;SHT30;73331;48.168;20.776;2024-01-30T03:19:09;-3.96;90.17
83405;SHT30;73331;48.168;20.776;2024-01-30T03:20:39;-4.00;89.86
83405;SHT30;73331;48.168;20.776;2024-01-30T03:22:10;-4.00;89.93
83405;SHT30;73331;48.168;20.776;2024-01-30T03:23:40;-4.01;89.75
83405;SHT30;73331;48.168;20.776;2024-01-30T03:25:11;-4.01;89.63
83405;SHT30;73331;48.168;20.776;2024-01-30T03:26:41;-4.00;89.71
83405;SHT30;73331;48.168;20.776;2024-01-30T03:28:12;-4.00;89.62
83405;SHT30;73331;48.168;20.776;2024-01-30T03:29:42;-4.00;89.42
83405;SHT30;73331;48.168;20.776;2024-01-30T03:31:14;-4.03;89.36
83405;SHT30;73331;48.168;20.776;2024-01-30T03:32:44;-3.99;89.20
83405;SHT30;73331;48.168;20.776;2024-01-30T03:34:15;-4.04;89.15
83405;SHT30;73331;48.168;20.776;2024-01-30T03:35:45;-4.01;89.25
83405;SHT30;73331;48.168;20.776;2024-01-30T03:37:16;-4.03;89.17
83405;SHT30;73331;48.168;20.776;2024-01-30T03:38:46;-4.03;89.16
83405;SHT30;73331;48.168;20.776;2024-01-30T03:40:17;-4.07;89.18
83405;SHT30;73331;48.168;20.776;2024-01-30T03:41:47;-4.07;89.33
83405;SHT30;73331;48.168;20.776;2024-01-30T03:43:18;-4.14;89.37
83405;SHT30;73331;48.168;20.776;2024-01-30T03:44:48;-4.09;89.93
83405;SHT30;73331;48.168;20.776;2024-01-30T03:46:22;-3.82;90.29
83405;SHT30;73331;48.168;20.776;2024-01-30T03:47:52;-4.06;90.30
83405;SHT30;73331;48.168;20.776;2024-01-30T03:49:23;-4.15;91.15
83405;SHT30;73331;48.168;20.776;2024-01-30T03:50:53;-4.17;91.58
83405;SHT30;73331;48.168;20.776;2024-01-30T03:52:23;-4.21;91.83
83405;SHT30;73331;48.168;20.776;2024-01-30T03:53:54;-4.25;92.23
83405;SHT30;73331;48.168;20.776;2024-01-30T03:55:25;-4.30;92.20
83405;SHT30;73331;48.168;20.776;2024-01-30T03:56:55;-4.28;92.44
83405;SHT30;73331;48.168;20.776;2024-01-30T03:58:26;-4.24;92.81
83405;SHT30;73331;48.168;20.776;2024-01-30T03:59:56;-4.25;92.81
83405;SHT30;73331;48.168;20.776;2024-01-30T04:01:27;-4.27;92.75
83405;SHT30;73331;48.168;20.776;2024-01-30T04:02:57;-4.23;92.88
83405;SHT30;73331;48.168;20.776;2024-01-30T04:04:28;-4.21;92.74
83405;SHT30;73331;48.168;20.776;2024-01-30T04:05:58;-4.31;93.45
83405;SHT30;73331;48.168;20.776;2024-01-30T04:07:28;-4.24;93.00
83405;SHT30;73331;48.168;20.776;2024-01-30T04:08:59;-4.11;92.40
83405;SHT30;73331;48.168;20.776;2024-01-30T04:10:30;-3.86;91.87
83405;SHT30;73331;48.168;20.776;2024-01-30T04:12:00;-3.69;90.34
83405;SHT30;73331;48.168;20.776;2024-01-30T04:13:33;-4.06;90.16
83405;SHT30;73331;48.168;20.776;2024-01-30T04:15:04;-4.09;89.99
83405;SHT30;73331;48.168;20.776;2024-01-30T04:16:34;-4.11;89.81
83405;SHT30;73331;48.168;20.776;2024-01-30T04:18:05;-4.04;89.51
83405;SHT30;73331;48.168;20.776;2024-01-30T04:19:40;-3.99;90.13
83405;SHT30;73331;48.168;20.776;2024-01-30T04:21:10;-3.99;90.72
83405;SHT30;73331;48.168;20.776;2024-01-30T04:22:45;-4.10;90.22
83405;SHT30;73331;48.168;20.776;2024-01-30T04:24:16;-3.94;90.11
83405;SHT30;73331;48.168;20.776;2024-01-30T04:25:48;-4.18;90.85
83405;SHT30;73331;48.168;20.776;2024-01-30T04:27:19;-4.21;91.24
83405;SHT30;73331;48.168;20.776;2024-01-30T04:28:49;-4.25;91.48
83405;SHT30;73331;48.168;20.776;2024-01-30T04:30:20;-4.35;92.02
83405;SHT30;73331;48.168;20.776;2024-01-30T04:31:50;-4.41;92.33
83405;SHT30;73331;48.168;20.776;2024-01-30T04:33:21;-4.43;92.38
83405;SHT30;73331;48.168;20.776;2024-01-30T04:34:51;-4.43;93.03
83405;SHT30;73331;48.168;20.776;2024-01-30T04:36:22;-4.44;93.14
83405;SHT30;73331;48.168;20.776;2024-01-30T04:37:52;-4.44;93.38
83405;SHT30;73331;48.168;20.776;2024-01-30T04:39:23;-4.37;93.64
83405;SHT30;73331;48.168;20.776;2024-01-30T04:40:54;-4.37;93.64
83405;SHT30;73331;48.168;20.776;2024-01-30T04:42:24;-4.33;93.48
83405;SHT30;73331;48.168;20.776;2024-01-30T04:43:54;-4.28;93.27
83405;SHT30;73331;48.168;20.776;2024-01-30T04:45:25;-4.27;92.96
83405;SHT30;73331;48.168;20.776;2024-01-30T04:46:55;-4.31;92.91
83405;SHT30;73331;48.168;20.776;2024-01-30T04:48:29;-4.30;92.92
83405;SHT30;73331;48.168;20.776;2024-01-30T04:50:00;-4.28;93.09
83405;SHT30;73331;48.168;20.776;2024-01-30T04:51:31;-4.21;92.83
83405;SHT30;73331;48.168;20.776;2024-01-30T04:53:01;-4.27;92.91
83405;SHT30;73331;48.168;20.776;2024-01-30T04:54:32;-4.24;92.85
83405;SHT30;73331;48.168;20.776;2024-01-30T04:56:04;-4.27;93.06
83405;SHT30;73331;48.168;20.776;2024-01-30T04:57:35;-4.30;93.11
83405;SHT30;73331;48.168;20.776;2024-01-30T04:59:05;-4.28;93.30
83405;SHT30;73331;48.168;20.776;2024-01-30T05:00:36;-4.28;93.19
83405;SHT30;73331;48.168;20.776;2024-01-30T05:02:06;-4.31;93.15
83405;SHT30;73331;48.168;20.776;2024-01-30T05:03:37;-4.33;93.37
83405;SHT30;73331;48.168;20.776;2024-01-30T05:05:07;-4.09;93.47
83405;SHT30;73331;48.168;20.776;2024-01-30T05:06:38;-4.28;93.25
83405;SHT30;73331;48.168;20.776;2024-01-30T05:08:09;-4.09;93.02
83405;SHT30;73331;48.168;20.776;2024-01-30T05:09:39;-4.17;93.08
83405;SHT30;73331;48.168;20.776;2024-01-30T05:11:10;-4.23;93.34
83405;SHT30;73331;48.168;20.776;2024-01-30T05:12:41;-4.24;93.38
83405;SHT30;73331;48.168;20.776;2024-01-30T05:14:11;-4.20;93.46
83405;SHT30;73331;48.168;20.776;2024-01-30T05:15:42;-4.23;93.55
83405;SHT30;73331;48.168;20.776;2024-01-30T05:17:12;-4.21;93.34
83405;SHT30;73331;48.168;20.776;2024-01-30T05:18:43;-3.94;92.98
83405;SHT30;73331;48.168;20.776;2024-01-30T05:20:13;-3.66;92.09
83405;SHT30;73331;48.168;20.776;2024-01-30T05:21:44;-3.87;91.33
83405;SHT30;73331;48.168;20.776;2024-01-30T05:23:14;-3.97;91.81
83405;SHT30;73331;48.168;20.776;2024-01-30T05:24:45;-4.00;92.23
83405;SHT30;73331;48.168;20.776;2024-01-30T05:26:15;-3.68;91.58
83405;SHT30;73331;48.168;20.776;2024-01-30T05:27:46;-3.54;91.26
83405;SHT30;73331;48.168;20.776;2024-01-30T05:29:17;-3.19;89.80
83405;SHT30;73331;48.168;20.776;2024-01-30T05:30:47;-3.09;88.67
83405;SHT30;73331;48.168;20.776;2024-01-30T05:32:18;-3.62;89.17
83405;SHT30;73331;48.168;20.776;2024-01-30T05:33:48;-3.82;90.05
83405;SHT30;73331;48.168;20.776;2024-01-30T05:35:19;-3.89;91.25
83405;SHT30;73331;48.168;20.776;2024-01-30T05:36:51;-3.36;90.41
83405;SHT30;73331;48.168;20.776;2024-01-30T05:38:21;-3.63;89.87
83405;SHT30;73331;48.168;20.776;2024-01-30T05:39:52;-3.39;89.82
83405;SHT30;73331;48.168;20.776;2024-01-30T05:41:22;-3.83;90.14
83405;SHT30;73331;48.168;20.776;2024-01-30T05:42:53;-4.13;91.90
83405;SHT30;73331;48.168;20.776;2024-01-30T05:44:23;-4.18;91.92
83405;SHT30;73331;48.168;20.776;2024-01-30T05:45:54;-4.21;92.39
83405;SHT30;73331;48.168;20.776;2024-01-30T05:47:24;-4.31;92.72
83405;SHT30;73331;48.168;20.776;2024-01-30T05:48:55;-4.38;93.02
83405;SHT30;73331;48.168;20.776;2024-01-30T05:50:26;-4.41;93.13
83405;SHT30;73331;48.168;20.776;2024-01-30T05:51:57;-4.47;92.92
83405;SHT30;73331;48.168;20.776;2024-01-30T05:53:27;-4.38;92.94
83405;SHT30;73331;48.168;20.776;2024-01-30T05:54:58;-3.80;91.66
83405;SHT30;73331;48.168;20.776;2024-01-30T05:56:28;-4.14;91.39
83405;SHT30;73331;48.168;20.776;2024-01-30T05:57:59;-3.76;91.10
83405;SHT30;73331;48.168;20.776;2024-01-30T05:59:30;-3.62;90.16
83405;SHT30;73331;48.168;20.776;2024-01-30T06:01:00;-3.54;89.25
83405;SHT30;73331;48.168;20.776;2024-01-30T06:02:31;-3.36;89.21
83405;SHT30;73331;48.168;20.776;2024-01-30T06:04:02;-3.19;88.51
83405;SHT30;73331;48.168;20.776;2024-01-30T06:05:32;-3.75;89.47
83405;SHT30;73331;48.168;20.776;2024-01-30T06:07:03;-3.78;90.81
83405;SHT30;73331;48.168;20.776;2024-01-30T06:08:34;-4.03;91.19
83405;SHT30;73331;48.168;20.776;2024-01-30T06:10:05;-4.20;92.49
83405;SHT30;73331;48.168;20.776;2024-01-30T06:11:37;-4.31;92.70
83405;SHT30;73331;48.168;20.776;2024-01-30T06:13:07;-4.38;93.40
83405;SHT30;73331;48.168;20.776;2024-01-30T06:14:38;-4.45;93.79
83405;SHT30;73331;48.168;20.776;2024-01-30T06:16:10;-4.43;94.27
83405;SHT30;73331;48.168;20.776;2024-01-30T06:17:41;-4.34;94.24
83405;SHT30;73331;48.168;20.776;2024-01-30T06:19:13;-4.41;94.47
83405;SHT30;73331;48.168;20.776;2024-01-30T06:20:44;-4.43;94.65
83405;SHT30;73331;48.168;20.776;2024-01-30T06:22:15;-4.41;94.77
83405;SHT30;73331;48.168;20.776;2024-01-30T06:23:46;-4.38;95.10
83405;SHT30;73331;48.168;20.776;2024-01-30T06:25:16;-4.38;94.99
83405;SHT30;73331;48.168;20.776;2024-01-30T06:26:47;-4.38;94.57
83405;SHT30;73331;48.168;20.776;2024-01-30T06:28:17;-4.33;94.63
83405;SHT30;73331;48.168;20.776;2024-01-30T06:29:48;-4.27;94.14
83405;SHT30;73331;48.168;20.776;2024-01-30T06:31:18;-4.30;93.81
83405;SHT30;73331;48.168;20.776;2024-01-30T06:32:49;-4.33;93.94
83405;SHT30;73331;48.168;20.776;2024-01-30T06:34:21;-4.31;95.73
83405;SHT30;73331;48.168;20.776;2024-01-30T06:35:51;-4.33;95.57
83405;SHT30;73331;48.168;20.776;2024-01-30T06:37:22;-4.25;94.86
83405;SHT30;73331;48.168;20.776;2024-01-30T06:38:52;-4.33;94.20
83405;SHT30;73331;48.168;20.776;2024-01-30T06:40:25;-4.27;93.87
83405;SHT30;73331;48.168;20.776;2024-01-30T06:41:55;-4.20;93.87
83405;SHT30;73331;48.168;20.776;2024-01-30T06:43:27;-4.21;93.41
83405;SHT30;73331;48.168;20.776;2024-01-30T06:44:58;-3.96;93.02
83405;SHT30;73331;48.168;20.776;2024-01-30T06:46:28;-4.04;92.86
83405;SHT30;73331;48.168;20.776;2024-01-30T06:47:59;-3.86;93.14
83405;SHT30;73331;48.168;20.776;2024-01-30T06:49:29;-3.60;93.21
83405;SHT30;73331;48.168;20.776;2024-01-30T06:51:00;-3.79;92.55
83405;SHT30;73331;48.168;20.776;2024-01-30T06:52:30;-3.93;94.23
83405;SHT30;73331;48.168;20.776;2024-01-30T06:54:00;-4.04;93.83
83405;SHT30;73331;48.168;20.776;2024-01-30T06:55:31;-4.04;94.34
83405;SHT30;73331;48.168;20.776;2024-01-30T06:57:02;-4.03;93.66
83405;SHT30;73331;48.168;20.776;2024-01-30T06:58:32;-3.96;94.07
83405;SHT30;73331;48.168;20.776;2024-01-30T07:00:03;-3.78;93.57
83405;SHT30;73331;48.168;20.776;2024-01-30T07:01:34;-3.66;93.13
83405;SHT30;73331;48.168;20.776;2024-01-30T07:03:04;-3.01;91.10
83405;SHT30;73331;48.168;20.776;2024-01-30T07:04:35;-3.09;89.66
83405;SHT30;73331;48.168;20.776;2024-01-30T07:06:08;-3.46;90.86
83405;SHT30;73331;48.168;20.776;2024-01-30T07:07:38;-3.73;93.62
83405;SHT30;73331;48.168;20.776;2024-01-30T07:09:09;-3.73;92.95
83405;SHT30;73331;48.168;20.776;2024-01-30T07:10:39;-3.78;93.48
83405;SHT30;73331;48.168;20.776;2024-01-30T07:12:10;-3.25;92.31
83405;SHT30;73331;48.168;20.776;2024-01-30T07:13:40;-2.90;90.28
83405;SHT30;73331;48.168;20.776;2024-01-30T07:15:11;-2.84;88.76
83405;SHT30;73331;48.168;20.776;2024-01-30T07:16:42;-3.15;88.54
83405;SHT30;73331;48.168;20.776;2024-01-30T07:18:13;-3.49;90.41
83405;SHT30;73331;48.168;20.776;2024-01-30T07:19:46;-3.66;92.60
83405;SHT30;73331;48.168;20.776;2024-01-30T07:21:17;-3.65;91.83
83405;SHT30;73331;48.168;20.776;2024-01-30T07:22:47;-2.90;90.55
83405;SHT30;73331;48.168;20.776;2024-01-30T07:24:18;-2.81;90.70
83405;SHT30;73331;48.168;20.776;2024-01-30T07:25:48;-2.40;88.32
83405;SHT30;73331;48.168;20.776;2024-01-30T07:27:20;-2.71;88.45
83405;SHT30;73331;48.168;20.776;2024-01-30T07:28:51;-3.18;90.52
83405;SHT30;73331;48.168;20.776;2024-01-30T07:30:22;-2.95;89.71
83405;SHT30;73331;48.168;20.776;2024-01-30T07:31:53;-3.36;90.88
83405;SHT30;73331;48.168;20.776;2024-01-30T07:33:24;-3.46;91.84
83405;SHT30;73331;48.168;20.776;2024-01-30T07:34:55;-2.83;90.85
83405;SHT30;73331;48.168;20.776;2024-01-30T07:36:25;-3.11;89.94
83405;SHT30;73331;48.168;20.776;2024-01-30T07:37:56;-3.01;91.59
83405;SHT30;73331;48.168;20.776;2024-01-30T07:39:28;-3.09;91.28
83405;SHT30;73331;48.168;20.776;2024-01-30T07:40:58;-2.33;89.60
83405;SHT30;73331;48.168;20.776;2024-01-30T07:42:29;-1.94;87.59
83405;SHT30;73331;48.168;20.776;2024-01-30T07:44:00;-1.94;86.89
83405;SHT30;73331;48.168;20.776;2024-01-30T07:45:30;-1.75;86.64
83405;SHT30;73331;48.168;20.776;2024-01-30T07:47:04;-1.63;85.60
83405;SHT30;73331;48.168;20.776;2024-01-30T07:48:35;-1.50;85.21
83405;SHT30;73331;48.168;20.776;2024-01-30T07:50:06;-1.46;85.14
83405;SHT30;73331;48.168;20.776;2024-01-30T07:51:37;-1.54;84.70
83405;SHT30;73331;48.168;20.776;2024-01-30T07:53:07;-1.88;85.94
83405;SHT30;73331;48.168;20.776;2024-01-30T07:54:38;-2.13;87.30
83405;SHT30;73331;48.168;20.776;2024-01-30T07:56:27;-1.60;86.75
83405;SHT30;73331;48.168;20.776;2024-01-30T07:57:58;-1.78;85.38
83405;SHT30;73331;48.168;20.776;2024-01-30T07:59:31;-1.58;85.49
83405;SHT30;73331;48.168;20.776;2024-01-30T08:01:02;-1.32;84.50
83405;SHT30;73331;48.168;20.776;2024-01-30T08:02:33;-1.82;84.53
83405;SHT30;73331;48.168;20.776;2024-01-30T08:04:04;-2.36;87.81
83405;SHT30;73331;48.168;20.776;2024-01-30T08:05:34;-2.01;87.47
83405;SHT30;73331;48.168;20.776;2024-01-30T08:07:05;-2.13;87.48
83405;SHT30;73331;48.168;20.776;2024-01-30T08:08:35;-1.50;85.51
83405;SHT30;73331;48.168;20.776;2024-01-30T08:10:06;-1.30;83.79
83405;SHT30;73331;48.168;20.776;2024-01-30T08:11:37;-1.58;85.50
83405;SHT30;73331;48.168;20.776;2024-01-30T08:13:07;-1.34;84.18
83405;SHT30;73331;48.168;20.776;2024-01-30T08:14:39;-1.84;85.72
83405;SHT30;73331;48.168;20.776;2024-01-30T08:16:11;-1.47;85.68
83405;SHT30;73331;48.168;20.776;2024-01-30T08:17:42;-2.01;86.32
83405;SHT30;73331;48.168;20.776;2024-01-30T08:19:14;-2.28;88.54
83405;SHT30;73331;48.168;20.776;2024-01-30T08:20:44;-2.26;88.76
83405;SHT30;73331;48.168;20.776;2024-01-30T08:22:15;-2.35;89.57
83405;SHT30;73331;48.168;20.776;2024-01-30T08:23:46;-2.49;89.86
83405;SHT30;73331;48.168;20.776;2024-01-30T08:25:16;-2.50;90.31
83405;SHT30;73331;48.168;20.776;2024-01-30T08:26:47;-2.13;90.75
83405;SHT30;73331;48.168;20.776;2024-01-30T08:28:17;-1.50;87.50
83405;SHT30;73331;48.168;20.776;2024-01-30T08:29:48;-1.06;85.47
83405;SHT30;73331;48.168;20.776;2024-01-30T08:31:20;-1.14;83.55
83405;SHT30;73331;48.168;20.776;2024-01-30T08:32:51;-1.64;86.02
83405;SHT30;73331;48.168;20.776;2024-01-30T08:34:22;-1.98;87.62
83405;SHT30;73331;48.168;20.776;2024-01-30T08:35:52;-2.01;88.59
83405;SHT30;73331;48.168;20.776;2024-01-30T08:37:23;-1.91;88.05
83405;SHT30;73331;48.168;20.776;2024-01-30T08:38:53;-1.92;89.21
83405;SHT30;73331;48.168;20.776;2024-01-30T08:40:24;-1.95;89.14
83405;SHT30;73331;48.168;20.776;2024-01-30T08:41:54;-1.89;88.41
83405;SHT30;73331;48.168;20.776;2024-01-30T08:43:25;-1.79;89.04
83405;SHT30;73331;48.168;20.776;2024-01-30T08:44:55;-1.77;88.91
83405;SHT30;73331;48.168;20.776;2024-01-30T08:46:26;-1.63;89.09
83405;SHT30;73331;48.168;20.776;2024-01-30T08:47:57;-0.85;85.41
83405;SHT30;73331;48.168;20.776;2024-01-30T08:49:27;-1.07;83.65
83405;SHT30;73331;48.168;20.776;2024-01-30T08:50:58;-0.78;83.48
83405;SHT30;73331;48.168;20.776;2024-01-30T08:52:28;-0.42;82.47
83405;SHT30;73331;48.168;20.776;2024-01-30T08:53:59;-1.12;84.91
83405;SHT30;73331;48.168;20.776;2024-01-30T08:55:30;-0.92;86.29
83405;SHT30;73331;48.168;20.776;2024-01-30T08:57:01;-0.69;84.60
83405;SHT30;73331;48.168;20.776;2024-01-30T08:58:31;-0.28;82.79
83405;SHT30;73331;48.168;20.776;2024-01-30T09:00:02;-0.04;80.50
83405;SHT30;73331;48.168;20.776;2024-01-30T09:01:36;-0.42;81.69
83405;SHT30;73331;48.168;20.776;2024-01-30T09:03:07;-0.99;85.05
83405;SHT30;73331;48.168;20.776;2024-01-30T09:04:38;-1.14;86.10
83405;SHT30;73331;48.168;20.776;2024-01-30T09:06:12;-0.75;86.24
83405;SHT30;73331;48.168;20.776;2024-01-30T09:07:42;-0.17;83.64
83405;SHT30;73331;48.168;20.776;2024-01-30T09:09:13;-0.27;81.90
83405;SHT30;73331;48.168;20.776;2024-01-30T09:10:44;-0.48;82.63
83405;SHT30;73331;48.168;20.776;2024-01-30T09:12:15;-0.88;85.88
83405;SHT30;73331;48.168;20.776;2024-01-30T09:13:46;-1.02;86.45
83405;SHT30;73331;48.168;20.776;2024-01-30T09:15:16;-1.09;88.00
83405;SHT30;73331;48.168;20.776;2024-01-30T09:16:47;-1.00;87.55
83405;SHT30;73331;48.168;20.776;2024-01-30T09:18:19;-0.95;87.64
83405;SHT30;73331;48.168;20.776;2024-01-30T09:19:49;-0.66;87.16
83405;SHT30;73331;48.168;20.776;2024-01-30T09:21:20;-0.61;85.82
83405;SHT30;73331;48.168;20.776;2024-01-30T09:22:51;-0.72;86.16
83405;SHT30;73331;48.168;20.776;2024-01-30T09:24:21;-0.85;86.18